Mardan Weather



Mardan's Current Weather

Temprature 12o haze

haze

Rain: 0 %

Min Temprature12o
Max Temprature12o
Humidity71
Wind Speed2.1 m/h
Sun Rise07:07:59
Sun Set17:02:44
Current Time: 12-Dec-2019 01:30:41
Lat/Lon: 34.19, 72.05




Mardan's Geo Location



Mardan's Weather Forecast

Time Overall Temp Min Temp Max Temp Humidity Wind Speed Rain
12-Dec-2019 (Thu)
02:00:00 overcast clouds 11.510 11.510 13.080 51 2.34 m/h 0 %
05:00:00 overcast clouds 10.940 10.940 12.120 55 1.68 m/h 0 %
08:00:00 overcast clouds 12.020 12.020 12.800 53 2.22 m/h 0 %
11:00:00 overcast clouds 15.390 15.390 15.780 43 2.14 m/h 0 %
14:00:00 overcast clouds 17.360 17.360 17.360 35 0.66 m/h 0 %
17:00:00 overcast clouds 15.830 15.830 15.830 44 1.26 m/h 0 %
20:00:00 overcast clouds 15.490 15.490 15.490 45 0.77 m/h 0 %
23:00:00 light rain 11.930 11.930 11.930 75 3.47 m/h 50 %
13-Dec-2019 (Fri)
02:00:00 light rain 11.000 11.000 11.000 86 1.86 m/h 244 %
05:00:00 light rain 10.820 10.820 10.820 85 1.34 m/h 256 %
08:00:00 light rain 11.240 11.240 11.240 80 0.73 m/h 94 %
11:00:00 light rain 13.050 13.050 13.050 67 0.43 m/h 19 %
14:00:00 light rain 15.230 15.230 15.230 52 2.17 m/h 6 %
17:00:00 scattered clouds 13.610 13.610 13.610 59 2.93 m/h 0 %
20:00:00 clear sky 12.200 12.200 12.200 66 2 m/h 0 %
23:00:00 clear sky 11.220 11.220 11.220 70 1.38 m/h 0 %
14-Dec-2019 (Sat)
02:00:00 clear sky 10.340 10.340 10.340 74 1.37 m/h 0 %
05:00:00 clear sky 9.510 9.510 9.510 79 0.59 m/h 0 %
08:00:00 few clouds 10.140 10.140 10.140 78 0.58 m/h 0 %
11:00:00 few clouds 13.890 13.890 13.890 60 0.57 m/h 0 %
14:00:00 clear sky 15.750 15.750 15.750 52 0.97 m/h 0 %
17:00:00 clear sky 14.380 14.380 14.380 57 0.98 m/h 0 %
20:00:00 clear sky 12.980 12.980 12.980 62 0.21 m/h 0 %
23:00:00 clear sky 11.780 11.780 11.780 67 0.48 m/h 0 %
15-Dec-2019 (Sun)
02:00:00 scattered clouds 10.360 10.360 10.360 74 0.71 m/h 0 %
05:00:00 scattered clouds 10.150 10.150 10.150 74 1.81 m/h 0 %
08:00:00 few clouds 10.130 10.130 10.130 68 1.45 m/h 0 %
11:00:00 clear sky 14.330 14.330 14.330 44 2.53 m/h 0 %
14:00:00 clear sky 17.080 17.080 17.080 28 2.54 m/h 0 %
17:00:00 clear sky 15.260 15.260 15.260 32 2.13 m/h 0 %
20:00:00 clear sky 13.440 13.440 13.440 38 2.38 m/h 0 %
23:00:00 clear sky 11.810 11.810 11.810 38 1.63 m/h 0 %
16-Dec-2019 (Mon)
02:00:00 clear sky 10.500 10.500 10.500 40 1.47 m/h 0 %
05:00:00 clear sky 9.350 9.350 9.350 44 1.59 m/h 0 %
08:00:00 clear sky 9.450 9.450 9.450 40 1.63 m/h 0 %
11:00:00 clear sky 14.040 14.040 14.040 22 2.49 m/h 0 %
14:00:00 clear sky 17.210 17.210 17.210 16 3 m/h 0 %
17:00:00 clear sky 15.330 15.330 15.330 20 3.26 m/h 0 %
20:00:00 clear sky 13.650 13.650 13.650 21 3.63 m/h 0 %
23:00:00 clear sky 11.770 11.770 11.770 24 2.64 m/h 0 %

Famous Cities (61)